Time;durP1;ratioP1;P1;durP2;ratioP2;P2;SDS_P1;SDS_P2;PMS_P1;PMS_P2;Temp;Humidity;BMP_temperature;BMP_pressure;BME280_temperature;BME280_humidity;BME280_pressure;Samples;Min_cycle;Max_cycle;Signal;HPM_P1;HPM_P2
2024/01/31 00:00:50;;;;;;;8.05;2.95;;;10.00;47.60;;;;;;5033962;28;20577;-58
2024/01/31 00:03:18;;;;;;;3.88;2.20;;;10.00;47.60;;;;;;5046232;28;20065;-59
2024/01/31 00:05:48;;;;;;;5.88;2.63;;;10.00;47.60;;;;;;5030894;28;20151;-59
2024/01/31 00:08:17;;;;;;;6.97;2.50;;;10.00;47.60;;;;;;5036876;28;20076;-60
2024/01/31 00:10:45;;;;;;;35.95;11.20;;;10.00;47.50;;;;;;5043488;28;20415;-59
2024/01/31 00:13:14;;;;;;;11.82;4.68;;;10.10;47.50;;;;;;5033028;28;20061;-59
2024/01/31 00:15:42;;;;;;;10.02;3.03;;;10.10;47.50;;;;;;5039872;28;20140;-59
2024/01/31 00:18:13;;;;;;;10.90;2.65;;;10.10;47.40;;;;;;5041560;28;20057;-59
2024/01/31 00:20:42;;;;;;;5.10;2.72;;;10.10;47.40;;;;;;5040013;28;20414;-58
2024/01/31 00:23:10;;;;;;;9.48;3.22;;;10.10;47.30;;;;;;5035590;28;20056;-58
2024/01/31 00:25:39;;;;;;;7.05;2.70;;;10.10;47.30;;;;;;5031232;28;20052;-58
2024/01/31 00:28:08;;;;;;;16.02;2.97;;;10.10;47.30;;;;;;5041306;28;20061;-63
2024/01/31 00:30:36;;;;;;;5.30;2.15;;;10.10;47.30;;;;;;5039454;28;20053;-59
2024/01/31 00:33:05;;;;;;;5.55;2.42;;;10.10;47.60;;;;;;5038476;28;20067;-59
2024/01/31 00:35:35;;;;;;;28.10;7.75;;;10.10;47.30;;;;;;5033837;28;20067;-59
2024/01/31 00:38:04;;;;;;;7.70;3.20;;;10.00;47.40;;;;;;5035074;28;20124;-61
2024/01/31 00:40:32;;;;;;;6.97;3.15;;;10.10;47.40;;;;;;5036902;28;20544;-60
2024/01/31 00:43:00;;;;;;;10.85;3.53;;;10.00;47.40;;;;;;5029596;28;20061;-60
2024/01/31 00:45:29;;;;;;;9.43;3.42;;;10.00;47.40;;;;;;5031220;28;20884;-59
2024/01/31 00:47:57;;;;;;;12.38;4.10;;;9.90;47.40;;;;;;5046071;28;20106;-59
2024/01/31 00:50:26;;;;;;;10.25;5.15;;;9.90;47.40;;;;;;5041628;28;20056;-58
2024/01/31 00:52:56;;;;;;;11.77;4.18;;;9.80;47.40;;;;;;5035853;28;20054;-59
2024/01/31 00:55:24;;;;;;;15.98;4.90;;;9.80;47.50;;;;;;5025773;28;20076;-63
2024/01/31 00:57:54;;;;;;;13.23;5.28;;;9.70;47.50;;;;;;5038565;28;20063;-60
2024/01/31 01:00:25;;;;;;;9.52;4.70;;;9.60;47.50;;;;;;5052555;28;20045;-60
2024/01/31 01:02:54;;;;;;;25.52;7.97;;;9.60;47.60;;;;;;5036016;28;20060;-59
2024/01/31 01:05:23;;;;;;;13.10;3.83;;;9.60;48.30;;;;;;5028333;28;20413;-59
2024/01/31 01:07:51;;;;;;;23.02;7.15;;;9.50;47.60;;;;;;5037458;28;20065;-59
2024/01/31 01:10:21;;;;;;;8.82;3.75;;;9.50;47.70;;;;;;5036642;28;20069;-58
2024/01/31 01:12:49;;;;;;;2.78;1.90;;;9.60;47.80;;;;;;5036848;28;20190;-60
2024/01/31 01:15:19;;;;;;;7.03;2.60;;;9.60;47.90;;;;;;5029057;28;20071;-59
2024/01/31 01:17:47;;;;;;;2.60;1.95;;;9.70;47.80;;;;;;5038376;28;20490;-59
2024/01/31 01:20:16;;;;;;;2.67;1.52;;;9.70;47.80;;;;;;5029085;28;20064;-69
2024/01/31 01:22:45;;;;;;;13.02;4.85;;;9.80;47.90;;;;;;5035522;28;20091;-60
2024/01/31 01:25:13;;;;;;;8.57;3.20;;;9.80;47.90;;;;;;5026868;28;20079;-66
2024/01/31 01:27:50;;;;;;;3.38;2.53;;;9.90;47.90;;;;;;5037100;28;20056;-58
2024/01/31 01:30:20;;;;;;;6.60;2.60;;;9.90;47.90;;;;;;5034688;28;20576;-66
2024/01/31 01:32:48;;;;;;;4.15;1.88;;;9.90;47.90;;;;;;5036254;28;20194;-68
2024/01/31 01:35:17;;;;;;;9.35;3.38;;;10.00;47.90;;;;;;5023945;28;20546;-59
2024/01/31 01:37:45;;;;;;;5.18;2.30;;;10.10;47.90;;;;;;5034423;28;20421;-58
2024/01/31 01:40:15;;;;;;;13.27;2.78;;;10.20;47.90;;;;;;5035133;28;20171;-59
2024/01/31 01:42:46;;;;;;;4.28;2.30;;;10.20;48.10;;;;;;5035755;28;20049;-58
2024/01/31 01:45:14;;;;;;;5.00;2.38;;;10.30;47.70;;;;;;5029704;28;20156;-59
2024/01/31 01:47:48;;;;;;;5.40;2.30;;;10.30;47.60;;;;;;5037317;28;20152;-61
2024/01/31 01:50:18;;;;;;;4.03;2.28;;;10.30;47.50;;;;;;5040375;28;20076;-59
2024/01/31 01:52:46;;;;;;;14.57;2.70;;;10.30;47.60;;;;;;5031912;28;20064;-59
2024/01/31 01:55:15;;;;;;;2.70;2.15;;;10.20;47.50;;;;;;5029861;28;20049;-64
2024/01/31 01:57:45;;;;;;;3.63;2.40;;;10.20;47.60;;;;;;5029248;28;20057;-59
2024/01/31 02:00:14;;;;;;;6.60;2.92;;;10.30;47.60;;;;;;5030751;28;20139;-59
2024/01/31 02:02:43;;;;;;;2.22;1.58;;;10.30;47.60;;;;;;5037717;28;20056;-59
2024/01/31 02:05:12;;;;;;;7.65;2.67;;;10.20;47.50;;;;;;5033050;28;20126;-59
2024/01/31 02:07:41;;;;;;;3.63;2.92;;;10.30;47.90;;;;;;5035418;28;20122;-59
2024/01/31 02:10:10;;;;;;;5.35;2.08;;;10.20;47.40;;;;;;5036328;28;20052;-59
2024/01/31 02:12:40;;;;;;;2.85;2.20;;;10.20;47.60;;;;;;5033444;28;20140;-59
2024/01/31 02:15:11;;;;;;;9.13;3.13;;;10.10;47.50;;;;;;5035418;28;20065;-58
2024/01/31 02:17:40;;;;;;;6.40;2.40;;;10.10;47.60;;;;;;5034955;28;20052;-60
2024/01/31 02:20:15;;;;;;;12.10;2.05;;;10.00;47.60;;;;;;5032226;28;20084;-71
2024/01/31 02:22:47;;;;;;;5.18;2.30;;;10.00;47.70;;;;;;5035586;28;20071;-58
2024/01/31 02:25:16;;;;;;;4.47;2.10;;;10.00;47.60;;;;;;5028407;28;20118;-61
2024/01/31 02:27:45;;;;;;;4.30;2.88;;;10.00;47.60;;;;;;5035591;28;20107;-58
2024/01/31 02:30:15;;;;;;;4.75;2.05;;;9.90;47.60;;;;;;5033156;28;20140;-59
2024/01/31 02:32:45;;;;;;;3.70;1.88;;;9.90;47.70;;;;;;5036659;28;20156;-61
2024/01/31 02:35:16;;;;;;;3.60;2.28;;;9.80;47.70;;;;;;5046415;28;20152;-58
2024/01/31 02:37:46;;;;;;;6.13;2.30;;;9.80;48.10;;;;;;5029929;28;20052;-64
2024/01/31 02:40:16;;;;;;;2.95;2.10;;;9.70;47.70;;;;;;5049830;28;20045;-60
2024/01/31 02:42:45;;;;;;;5.20;1.90;;;9.70;47.80;;;;;;5030883;28;20045;-59
2024/01/31 02:45:15;;;;;;;9.75;3.13;;;9.60;47.70;;;;;;5029374;28;20120;-59
2024/01/31 02:47:47;;;;;;;4.57;2.10;;;9.60;47.70;;;;;;5033752;28;20087;-67
2024/01/31 02:50:16;;;;;;;4.60;2.10;;;9.50;47.80;;;;;;5038049;28;20429;-63
2024/01/31 02:52:47;;;;;;;41.25;7.97;;;9.60;47.90;;;;;;5049020;28;20060;-59
2024/01/31 02:55:17;;;;;;;15.35;3.13;;;9.50;47.80;;;;;;5012074;28;20057;-71
2024/01/31 02:57:45;;;;;;;4.28;1.92;;;9.50;47.90;;;;;;5032088;28;20060;-60
2024/01/31 03:00:16;;;;;;;14.13;4.68;;;9.50;48.20;;;;;;5036538;28;20055;-60
2024/01/31 03:02:44;;;;;;;5.00;2.03;;;9.50;47.90;;;;;;5025860;28;20134;-60
2024/01/31 03:05:13;;;;;;;48.20;12.55;;;9.50;47.90;;;;;;5025627;28;20065;-59
2024/01/31 03:07:42;;;;;;;30.38;7.25;;;9.50;47.90;;;;;;5034234;28;20045;-59
2024/01/31 03:10:13;;;;;;;15.38;3.72;;;9.50;47.90;;;;;;5031015;28;20052;-59
2024/01/31 03:12:43;;;;;;;26.77;7.50;;;9.50;48.00;;;;;;5035081;28;20057;-59
2024/01/31 03:15:15;;;;;;;36.67;10.65;;;9.50;48.00;;;;;;5030484;28;20060;-59
2024/01/31 03:17:45;;;;;;;2.67;2.30;;;9.60;48.00;;;;;;5032075;28;20725;-59
2024/01/31 03:20:14;;;;;;;11.55;3.33;;;9.60;48.00;;;;;;5031470;28;20041;-58
2024/01/31 03:22:44;;;;;;;6.15;2.38;;;9.60;48.00;;;;;;5033850;28;20092;-59
2024/01/31 03:25:20;;;;;;;10.48;3.55;;;9.70;48.10;;;;;;5033596;28;20072;-57
2024/01/31 03:27:50;;;;;;;2.38;1.80;;;9.70;48.10;;;;;;5032204;28;20071;-58
2024/01/31 03:30:19;;;;;;;5.25;2.50;;;9.70;48.80;;;;;;5035797;28;20065;-59
2024/01/31 03:32:48;;;;;;;1.25;1.15;;;9.80;48.20;;;;;;5051492;28;20055;-63
2024/01/31 03:35:18;;;;;;;12.35;4.05;;;9.80;48.20;;;;;;5032737;28;20049;-59
2024/01/31 03:37:47;;;;;;;6.15;2.58;;;9.90;48.20;;;;;;5029260;28;20065;-60
2024/01/31 03:40:17;;;;;;;10.75;3.15;;;10.00;48.20;;;;;;5031420;28;20378;-58
2024/01/31 03:42:46;;;;;;;25.90;7.20;;;10.10;48.10;;;;;;5033066;28;20073;-60
2024/01/31 03:45:21;;;;;;;8.48;2.15;;;10.20;48.10;;;;;;5039584;28;20060;-60
2024/01/31 03:47:51;;;;;;;132.75;33.05;;;10.40;48.10;;;;;;5029588;28;20064;-60
2024/01/31 03:50:20;;;;;;;3.65;1.88;;;10.50;47.90;;;;;;5042741;28;20103;-66
2024/01/31 03:52:49;;;;;;;11.48;4.15;;;10.60;47.90;;;;;;5031544;28;20067;-60
2024/01/31 03:55:22;;;;;;;2.45;1.65;;;10.60;47.70;;;;;;5027274;28;20453;-59
2024/01/31 03:57:51;;;;;;;11.35;2.80;;;10.60;47.60;;;;;;5028096;28;20064;-59
2024/01/31 04:00:20;;;;;;;4.00;1.77;;;10.70;47.70;;;;;;5032244;28;20064;-65
2024/01/31 04:02:52;;;;;;;4.32;1.75;;;10.70;47.60;;;;;;5035681;28;20060;-59
2024/01/31 04:05:21;;;;;;;4.40;2.70;;;10.70;48.00;;;;;;5025331;28;20414;-59
2024/01/31 04:07:50;;;;;;;4.47;1.95;;;10.60;47.70;;;;;;5031473;28;20602;-59
2024/01/31 04:10:19;;;;;;;4.25;1.58;;;10.90;48.10;;;;;;5041529;28;20414;-58
2024/01/31 04:12:50;;;;;;;6.25;2.25;;;10.70;47.60;;;;;;5039972;28;20049;-59
2024/01/31 04:15:20;;;;;;;4.18;1.77;;;10.60;47.60;;;;;;5029131;28;20057;-59
2024/01/31 04:17:50;;;;;;;6.68;2.67;;;10.70;48.00;;;;;;5034621;28;20064;-60
2024/01/31 04:20:18;;;;;;;8.63;3.20;;;10.60;47.60;;;;;;5035333;28;20060;-65
2024/01/31 04:22:48;;;;;;;7.50;3.65;;;10.70;47.70;;;;;;5036297;28;20061;-60
2024/01/31 04:25:19;;;;;;;4.93;2.35;;;10.70;47.60;;;;;;5032528;28;20049;-74
2024/01/31 04:27:50;;;;;;;8.43;2.30;;;10.70;47.60;;;;;;5035327;28;20123;-59
2024/01/31 04:30:19;;;;;;;5.95;1.80;;;10.70;47.60;;;;;;5032717;28;20064;-59
2024/01/31 04:32:48;;;;;;;3.53;1.85;;;10.70;47.50;;;;;;5038960;28;20148;-60
2024/01/31 04:35:22;;;;;;;3.72;2.00;;;10.70;47.50;;;;;;5029596;28;20110;-60
2024/01/31 04:37:52;;;;;;;11.27;1.90;;;10.70;47.60;;;;;;5038722;28;20057;-59
2024/01/31 04:40:21;;;;;;;6.90;3.10;;;10.70;47.50;;;;;;5035691;28;20158;-60
2024/01/31 04:42:51;;;;;;;8.00;2.10;;;10.60;47.50;;;;;;5036766;28;20072;-69
2024/01/31 04:45:23;;;;;;;7.45;1.75;;;10.60;47.60;;;;;;5029466;28;20449;-61
2024/01/31 04:47:52;;;;;;;1.83;1.55;;;10.60;47.60;;;;;;5031603;28;20122;-68
2024/01/31 04:50:21;;;;;;;55.85;14.15;;;10.60;47.50;;;;;;5047470;28;20126;-61
2024/01/31 04:52:49;;;;;;;4.28;1.48;;;10.60;47.60;;;;;;5029362;28;20049;-58
2024/01/31 04:55:21;;;;;;;37.58;9.80;;;10.60;47.50;;;;;;5030430;28;20080;-59
2024/01/31 04:57:51;;;;;;;32.20;8.70;;;10.60;47.60;;;;;;5034648;28;20144;-63
2024/01/31 05:00:23;;;;;;;39.50;10.20;;;10.60;47.60;;;;;;5033715;28;20136;-61
2024/01/31 05:02:52;;;;;;;5.75;2.72;;;10.70;47.70;;;;;;5033453;28;20381;-59
2024/01/31 05:05:21;;;;;;;5.60;2.13;;;10.70;47.60;;;;;;5031866;28;20053;-60
2024/01/31 05:07:49;;;;;;;12.75;2.80;;;10.70;48.10;;;;;;5034043;28;20260;-59
2024/01/31 05:10:20;;;;;;;6.22;3.00;;;10.70;47.50;;;;;;5041776;28;20792;-61
2024/01/31 05:12:51;;;;;;;3.88;1.98;;;10.70;47.50;;;;;;5032937;28;20866;-61
2024/01/31 05:15:22;;;;;;;13.65;3.42;;;10.70;47.70;;;;;;5033945;28;20084;-58
2024/01/31 05:17:53;;;;;;;9.45;2.58;;;10.60;47.50;;;;;;5038378;28;20056;-60
2024/01/31 05:20:22;;;;;;;2.40;1.80;;;10.70;47.60;;;;;;5051084;28;20510;-69
2024/01/31 05:22:52;;;;;;;3.28;2.15;;;10.70;47.60;;;;;;5035369;28;20065;-60
2024/01/31 05:25:24;;;;;;;16.75;2.53;;;10.70;47.60;;;;;;5029400;28;20082;-61
2024/01/31 05:27:55;;;;;;;10.85;2.13;;;10.70;47.60;;;;;;5036698;28;20083;-63
2024/01/31 05:30:26;;;;;;;4.50;2.00;;;10.70;47.60;;;;;;5034689;28;20057;-63
2024/01/31 05:32:55;;;;;;;5.63;2.35;;;10.70;47.60;;;;;;5031244;28;21133;-63
2024/01/31 05:35:25;;;;;;;5.00;2.40;;;10.70;47.60;;;;;;5027116;28;20063;-62
2024/01/31 05:37:54;;;;;;;13.98;3.35;;;10.80;47.60;;;;;;5033308;28;20049;-62
2024/01/31 05:40:23;;;;;;;15.82;3.72;;;10.80;47.60;;;;;;5048060;28;20048;-62
2024/01/31 05:42:52;;;;;;;5.05;2.55;;;10.80;47.60;;;;;;5034841;28;20053;-61
2024/01/31 05:45:25;;;;;;;16.52;3.15;;;10.90;47.60;;;;;;5025081;28;20148;-64
2024/01/31 05:47:56;;;;;;;10.18;2.67;;;10.90;47.60;;;;;;5039628;28;20053;-63
2024/01/31 05:50:25;;;;;;;7.00;2.63;;;10.90;47.50;;;;;;5032980;28;20053;-62
2024/01/31 05:52:54;;;;;;;5.53;2.90;;;10.90;47.50;;;;;;5032366;28;20577;-63
2024/01/31 05:55:23;;;;;;;6.18;1.95;;;10.90;47.50;;;;;;5025230;28;20140;-62
2024/01/31 05:57:52;;;;;;;4.28;2.53;;;10.80;47.50;;;;;;5030414;28;20059;-60
2024/01/31 06:00:21;;;;;;;2.75;1.85;;;10.90;47.70;;;;;;5029709;28;20114;-59
2024/01/31 06:02:52;;;;;;;9.85;3.08;;;11.00;47.90;;;;;;5029917;28;20053;-61
2024/01/31 06:05:26;;;;;;;5.20;2.38;;;11.10;47.80;;;;;;5025048;28;20056;-61
2024/01/31 06:07:56;;;;;;;6.43;2.33;;;11.20;47.70;;;;;;5033885;28;20051;-61
2024/01/31 06:10:25;;;;;;;3.80;2.10;;;11.20;47.50;;;;;;5038844;28;20643;-61
2024/01/31 06:12:54;;;;;;;4.65;2.17;;;11.20;47.40;;;;;;5031981;28;20045;-60
2024/01/31 06:15:25;;;;;;;11.50;2.30;;;11.10;47.30;;;;;;5026876;28;20053;-61
2024/01/31 06:17:55;;;;;;;3.38;1.90;;;11.10;47.50;;;;;;5033811;28;20049;-62
2024/01/31 06:20:25;;;;;;;3.58;2.25;;;11.10;47.50;;;;;;5035380;28;20102;-67
2024/01/31 06:22:54;;;;;;;5.40;2.45;;;11.10;47.50;;;;;;5036371;28;20041;-62
2024/01/31 06:25:26;;;;;;;5.15;2.78;;;11.10;47.50;;;;;;5028655;28;20520;-63
2024/01/31 06:27:56;;;;;;;2.72;1.75;;;11.10;47.50;;;;;;5033600;28;20069;-62
2024/01/31 06:30:31;;;;;;;7.53;2.33;;;11.10;47.50;;;;;;5027444;28;20075;-63
2024/01/31 06:33:07;;;;;;;4.68;2.45;;;11.10;47.50;;;;;;5039298;28;20044;-61
2024/01/31 06:35:36;;;;;;;5.38;2.35;;;11.10;47.40;;;;;;5030686;28;20045;-75
2024/01/31 06:38:05;;;;;;;12.05;2.67;;;11.10;47.30;;;;;;5029591;28;20157;-62
2024/01/31 06:40:35;;;;;;;17.85;3.15;;;11.10;47.30;;;;;;5033560;28;20122;-61
2024/01/31 06:43:04;;;;;;;5.07;2.17;;;11.10;47.30;;;;;;5030198;28;20045;-61
2024/01/31 06:45:34;;;;;;;2.60;1.60;;;11.10;47.30;;;;;;5001910;28;20028;-61
2024/01/31 06:48:08;;;;;;;14.40;2.08;;;11.00;47.30;;;;;;5040876;28;20135;-64
2024/01/31 06:50:40;;;;;;;7.57;3.15;;;11.00;47.40;;;;;;5022226;28;20037;-75
2024/01/31 06:53:15;;;;;;;8.95;3.05;;;11.00;47.40;;;;;;5028197;28;20474;-61
2024/01/31 06:55:47;;;;;;;17.45;2.38;;;11.00;47.50;;;;;;5028116;28;20172;-62
2024/01/31 06:58:19;;;;;;;6.30;2.30;;;11.10;47.50;;;;;;5042768;28;20606;-74
2024/01/31 07:00:53;;;;;;;7.28;2.60;;;11.10;47.50;;;;;;5026189;28;20068;-64
2024/01/31 07:03:24;;;;;;;5.65;2.72;;;11.20;47.50;;;;;;5021665;28;20049;-60
2024/01/31 07:05:54;;;;;;;20.63;3.35;;;11.30;47.50;;;;;;5024249;28;20049;-62
2024/01/31 07:08:23;;;;;;;11.65;2.20;;;11.30;47.40;;;;;;5033668;28;20667;-62
2024/01/31 07:10:54;;;;;;;5.72;3.00;;;11.40;47.40;;;;;;5046704;28;20119;-62
2024/01/31 07:13:23;;;;;;;5.75;2.33;;;11.40;47.40;;;;;;5022824;28;20581;-61
2024/01/31 07:15:52;;;;;;;7.85;2.72;;;11.40;47.30;;;;;;5038522;28;20131;-61
2024/01/31 07:18:23;;;;;;;10.85;3.45;;;11.40;47.30;;;;;;5029293;28;20056;-61
2024/01/31 07:20:52;;;;;;;5.07;2.30;;;11.40;47.30;;;;;;5025779;28;20084;-62
2024/01/31 07:23:23;;;;;;;4.55;2.30;;;11.40;47.40;;;;;;5021642;28;20822;-65
2024/01/31 07:25:51;;;;;;;6.70;2.42;;;11.50;47.60;;;;;;5028447;28;20502;-61
2024/01/31 07:28:22;;;;;;;5.28;2.72;;;11.50;47.30;;;;;;5019916;28;20049;-61
2024/01/31 07:30:52;;;;;;;4.93;2.50;;;11.50;47.40;;;;;;5026834;28;20140;-61
2024/01/31 07:33:21;;;;;;;5.97;3.13;;;11.60;47.40;;;;;;5027184;28;20048;-63
2024/01/31 07:35:51;;;;;;;14.32;3.03;;;11.70;47.40;;;;;;5026257;28;20099;-62
2024/01/31 07:38:21;;;;;;;9.55;3.25;;;11.80;47.30;;;;;;5025113;28;20057;-60
2024/01/31 07:40:50;;;;;;;8.45;3.90;;;11.90;47.30;;;;;;5037757;28;20049;-61
2024/01/31 07:43:18;;;;;;;6.45;2.45;;;12.10;47.40;;;;;;5029333;28;20045;-61
2024/01/31 07:45:47;;;;;;;15.18;3.20;;;12.20;47.20;;;;;;5035483;28;20060;-61
2024/01/31 07:48:16;;;;;;;4.43;2.40;;;12.30;47.10;;;;;;5012135;28;20064;-61
2024/01/31 07:50:44;;;;;;;5.75;2.60;;;12.40;47.00;;;;;;5031304;28;20064;-62
2024/01/31 07:53:14;;;;;;;7.38;3.10;;;12.40;46.90;;;;;;5025444;28;20116;-62
2024/01/31 07:55:42;;;;;;;3.97;2.67;;;12.50;46.90;;;;;;5033694;28;20142;-62
2024/01/31 07:58:11;;;;;;;11.88;3.35;;;12.50;46.80;;;;;;5021359;28;20044;-60
2024/01/31 08:00:40;;;;;;;3.65;2.30;;;12.50;46.90;;;;;;5029924;28;20073;-61
2024/01/31 08:03:08;;;;;;;27.88;3.00;;;12.60;46.90;;;;;;5027655;28;20064;-62
2024/01/31 08:05:37;;;;;;;7.68;3.20;;;12.70;46.90;;;;;;5037779;28;20144;-60
2024/01/31 08:08:06;;;;;;;12.38;3.00;;;12.80;46.90;;;;;;5027199;28;20206;-61
2024/01/31 08:10:36;;;;;;;10.02;3.65;;;13.00;47.00;;;;;;5029592;28;20394;-61
2024/01/31 08:13:05;;;;;;;6.68;2.15;;;13.30;47.00;;;;;;5025339;28;20136;-61
2024/01/31 08:15:34;;;;;;;6.35;2.80;;;13.50;46.80;;;;;;5030416;28;20140;-61
2024/01/31 08:18:04;;;;;;;4.53;2.50;;;13.60;46.30;;;;;;5022562;28;20053;-60
2024/01/31 08:20:34;;;;;;;34.95;5.18;;;13.70;46.30;;;;;;5025145;28;20045;-61
2024/01/31 08:23:02;;;;;;;15.10;2.78;;;13.80;46.40;;;;;;5026769;28;20052;-61
2024/01/31 08:25:31;;;;;;;13.45;3.05;;;13.90;46.10;;;;;;5028931;28;20045;-61
2024/01/31 08:28:02;;;;;;;10.73;2.53;;;13.90;46.00;;;;;;5032157;28;20056;-61
2024/01/31 08:30:31;;;;;;;6.68;3.30;;;13.90;45.90;;;;;;5028154;28;20056;-63
2024/01/31 08:33:00;;;;;;;13.18;3.05;;;13.90;46.00;;;;;;5046718;28;20049;-61
2024/01/31 08:35:28;;;;;;;8.13;3.42;;;13.90;46.00;;;;;;5027982;28;20085;-61
2024/01/31 08:37:57;;;;;;;13.05;2.95;;;13.90;46.00;;;;;;5023182;28;20053;-63
2024/01/31 08:40:26;;;;;;;9.38;2.47;;;13.90;45.80;;;;;;5020330;28;20518;-62
2024/01/31 08:42:58;;;;;;;6.90;3.03;;;13.80;45.70;;;;;;5024429;28;20057;-62
2024/01/31 08:45:29;;;;;;;12.40;2.38;;;13.70;45.80;;;;;;5030609;28;20115;-61
2024/01/31 08:47:59;;;;;;;6.00;3.38;;;13.80;46.10;;;;;;5032353;28;20069;-63
2024/01/31 08:50:28;;;;;;;15.77;3.22;;;13.90;46.10;;;;;;5030437;28;20110;-61
2024/01/31 08:52:57;;;;;;;11.32;3.35;;;14.00;46.10;;;;;;5030396;28;20071;-61
2024/01/31 08:55:26;;;;;;;7.97;3.20;;;14.20;46.10;;;;;;5025661;28;20049;-60
2024/01/31 08:57:54;;;;;;;19.35;3.85;;;14.50;46.10;;;;;;5029736;28;20041;-60
2024/01/31 09:00:23;;;;;;;7.95;3.05;;;14.70;45.90;;;;;;5023923;28;20060;-62
2024/01/31 09:02:52;;;;;;;12.73;2.70;;;14.90;45.60;;;;;;5038447;28;20056;-60
2024/01/31 09:05:21;;;;;;;6.25;2.78;;;15.00;45.40;;;;;;5024915;28;20053;-59
2024/01/31 09:07:49;;;;;;;12.15;3.00;;;15.10;45.50;;;;;;5020710;28;20060;-63
2024/01/31 09:10:18;;;;;;;11.55;4.28;;;15.50;45.80;;;;;;5022924;28;20119;-60
2024/01/31 09:12:46;;;;;;;11.35;3.25;;;15.90;45.50;;;;;;5024243;28;20053;-62
2024/01/31 09:15:16;;;;;;;5.85;2.97;;;16.10;45.10;;;;;;5031897;28;20151;-60
2024/01/31 09:17:46;;;;;;;6.28;2.53;;;16.30;45.00;;;;;;5032263;28;20176;-60
2024/01/31 09:20:16;;;;;;;8.95;2.85;;;16.40;44.80;;;;;;5021597;28;20451;-66
2024/01/31 09:22:44;;;;;;;6.20;2.78;;;16.50;44.40;;;;;;5020717;28;20182;-60
2024/01/31 09:25:14;;;;;;;24.45;3.50;;;16.30;44.20;;;;;;5023157;28;20141;-59
2024/01/31 09:27:43;;;;;;;6.30;2.90;;;16.20;44.40;;;;;;5037686;28;20045;-59
2024/01/31 09:30:13;;;;;;;14.88;2.97;;;16.20;44.50;;;;;;5017607;28;20050;-60
2024/01/31 09:32:41;;;;;;;7.25;2.40;;;16.30;44.60;;;;;;5029717;28;20092;-60
2024/01/31 09:35:09;;;;;;;5.93;2.50;;;16.50;44.60;;;;;;5027586;28;20396;-60
2024/01/31 09:37:39;;;;;;;16.25;3.00;;;16.60;44.20;;;;;;5028481;28;20053;-60
2024/01/31 09:40:09;;;;;;;28.13;3.22;;;16.70;44.20;;;;;;5017548;28;20063;-61
2024/01/31 09:42:39;;;;;;;8.85;2.67;;;16.70;44.00;;;;;;5046293;28;20106;-60
2024/01/31 09:45:12;;;;;;;6.85;2.85;;;16.70;44.80;;;;;;5023406;28;20060;-59
2024/01/31 09:47:45;;;;;;;26.77;5.63;;;16.70;44.20;;;;;;5027058;28;20136;-77
2024/01/31 09:50:14;;;;;;;13.30;2.97;;;16.90;44.20;;;;;;5022231;28;20053;-59
2024/01/31 09:52:51;;;;;;;10.30;3.63;;;17.20;44.20;;;;;;5029049;28;20053;-60
2024/01/31 09:55:23;;;;;;;6.13;3.08;;;17.30;43.60;;;;;;5027293;28;20057;-60
2024/01/31 09:57:55;;;;;;;18.97;3.80;;;17.40;43.60;;;;;;5027690;28;20061;-60
2024/01/31 10:00:24;;;;;;;14.82;3.65;;;17.80;43.80;;;;;;5021418;28;20078;-69
2024/01/31 10:02:52;;;;;;;19.75;5.75;;;18.00;43.30;;;;;;5027378;28;20693;-60
2024/01/31 10:05:21;;;;;;;11.32;4.50;;;18.00;42.60;;;;;;5030025;28;20156;-60
2024/01/31 10:07:51;;;;;;;11.57;2.92;;;18.10;43.20;;;;;;5029231;28;20081;-60
2024/01/31 10:10:23;;;;;;;9.40;3.35;;;18.60;43.20;;;;;;5021957;28;20169;-61
2024/01/31 10:12:51;;;;;;;4.65;2.70;;;19.30;43.00;;;;;;5020034;28;20062;-61
2024/01/31 10:15:20;;;;;;;12.25;3.25;;;19.90;42.60;;;;;;5036851;28;20055;-61
2024/01/31 10:17:48;;;;;;;6.82;3.22;;;20.60;42.00;;;;;;5026016;28;20131;-60
2024/01/31 10:20:17;;;;;;;7.75;2.55;;;21.30;41.30;;;;;;5017239;28;20862;-60
2024/01/31 10:22:47;;;;;;;12.52;3.33;;;21.60;40.60;;;;;;5024910;28;20048;-62
2024/01/31 10:25:20;;;;;;;24.48;2.65;;;21.80;40.20;;;;;;5032666;28;20061;-59
2024/01/31 10:27:52;;;;;;;7.55;3.00;;;22.30;40.00;;;;;;5028742;28;20059;-60
2024/01/31 10:30:21;;;;;;;15.85;6.25;;;22.90;39.80;;;;;;5018307;28;20067;-60
2024/01/31 10:32:51;;;;;;;19.48;3.22;;;23.60;39.60;;;;;;5031078;28;20044;-62
2024/01/31 10:35:21;;;;;;;15.98;5.00;;;24.40;38.70;;;;;;5043084;28;20053;-60
2024/01/31 10:38:11;;;;;;;12.43;5.03;;;24.30;37.30;;;;;;5037390;28;20045;-60
2024/01/31 10:40:43;;;;;;;11.70;5.30;;;23.70;37.00;;;;;;5027018;28;20388;-60
2024/01/31 10:43:13;;;;;;;18.20;6.75;;;22.90;37.40;;;;;;5021158;28;20049;-62
2024/01/31 10:45:43;;;;;;;5.63;3.05;;;22.50;38.30;;;;;;5024073;28;20060;-60
2024/01/31 10:48:11;;;;;;;6.18;2.67;;;22.80;38.80;;;;;;5024618;28;20144;-61
2024/01/31 10:50:42;;;;;;;12.65;2.42;;;23.40;38.20;;;;;;5027922;28;20076;-60
2024/01/31 10:53:13;;;;;;;10.40;4.82;;;23.80;37.30;;;;;;5030047;28;20065;-60
2024/01/31 10:55:45;;;;;;;5.55;2.70;;;24.20;37.10;;;;;;5028475;28;20521;-60
2024/01/31 10:58:14;;;;;;;40.47;11.90;;;24.50;36.80;;;;;;5020392;28;20049;-60
2024/01/31 11:00:47;;;;;;;6.53;3.10;;;24.70;36.20;;;;;;5029920;28;20052;-61
2024/01/31 11:03:18;;;;;;;9.77;2.97;;;24.70;35.80;;;;;;5029522;28;20093;-59
2024/01/31 11:05:49;;;;;;;11.35;2.83;;;24.50;35.60;;;;;;5023747;28;20175;-60
2024/01/31 11:08:19;;;;;;;21.65;6.50;;;23.80;35.50;;;;;;5020196;28;20125;-61
2024/01/31 11:10:49;;;;;;;7.20;3.00;;;23.00;36.00;;;;;;5041017;28;20235;-62
2024/01/31 11:13:18;;;;;;;5.57;2.70;;;22.30;36.80;;;;;;5032144;28;20057;-62
2024/01/31 11:15:47;;;;;;;6.75;2.85;;;22.30;37.40;;;;;;5030998;28;20061;-68
2024/01/31 11:18:16;;;;;;;18.17;6.80;;;22.40;37.30;;;;;;5024213;28;20061;-59
2024/01/31 11:20:47;;;;;;;42.35;10.27;;;22.60;37.30;;;;;;5025422;28;20142;-62
2024/01/31 11:23:22;;;;;;;12.93;4.63;;;22.70;37.10;;;;;;5027554;28;20135;-60
2024/01/31 11:25:53;;;;;;;15.80;4.32;;;22.60;36.90;;;;;;5027022;28;20067;-61
2024/01/31 11:28:26;;;;;;;24.15;5.63;;;22.40;36.90;;;;;;5026452;28;20513;-61
2024/01/31 11:31:00;;;;;;;7.57;3.10;;;22.10;37.00;;;;;;5026378;28;20064;-61
2024/01/31 11:33:29;;;;;;;12.93;3.40;;;21.70;37.10;;;;;;5024592;28;20053;-60
2024/01/31 11:35:59;;;;;;;6.93;2.70;;;21.10;37.40;;;;;;5032605;28;20056;-61
2024/01/31 11:38:28;;;;;;;8.98;3.83;;;20.50;37.80;;;;;;5025039;28;20053;-59
2024/01/31 11:40:58;;;;;;;19.38;5.25;;;19.90;38.20;;;;;;5020327;28;20150;-60
2024/01/31 11:43:27;;;;;;;20.48;5.88;;;19.50;38.80;;;;;;5027336;28;20056;-60
2024/01/31 11:45:56;;;;;;;28.95;7.55;;;19.30;39.30;;;;;;5034569;28;20529;-60
2024/01/31 11:48:25;;;;;;;10.38;3.25;;;19.10;39.60;;;;;;5026335;28;20461;-60
2024/01/31 11:50:57;;;;;;;11.27;3.35;;;19.00;39.60;;;;;;5035447;28;20061;-59
2024/01/31 11:53:25;;;;;;;16.67;4.07;;;18.90;39.60;;;;;;5043827;28;20069;-60
2024/01/31 11:55:54;;;;;;;37.97;6.70;;;18.80;39.90;;;;;;5028084;28;20046;-60
2024/01/31 11:58:24;;;;;;;27.85;6.43;;;18.70;40.10;;;;;;5042376;28;20060;-61
2024/01/31 12:00:53;;;;;;;8.35;3.30;;;18.80;40.20;;;;;;5030632;28;20045;-61
2024/01/31 12:03:27;;;;;;;10.40;3.28;;;18.70;40.00;;;;;;5025241;28;20132;-61
2024/01/31 12:05:57;;;;;;;17.85;5.20;;;18.70;40.10;;;;;;5030646;28;20057;-61
2024/01/31 12:08:27;;;;;;;8.93;3.42;;;18.60;40.00;;;;;;5020095;28;20111;-61
2024/01/31 12:10:55;;;;;;;63.55;12.90;;;18.50;40.00;;;;;;5012092;28;20087;-60
2024/01/31 12:13:26;;;;;;;9.45;3.35;;;18.60;40.50;;;;;;5024895;28;20053;-60
2024/01/31 12:15:56;;;;;;;7.90;3.80;;;18.50;40.50;;;;;;5018308;28;20049;-63
2024/01/31 12:18:24;;;;;;;51.67;11.57;;;18.50;40.20;;;;;;5027412;28;20045;-63
2024/01/31 12:21:03;;;;;;;12.80;4.22;;;18.40;40.20;;;;;;5026926;28;20064;-61
2024/01/31 12:23:32;;;;;;;9.35;3.28;;;18.40;40.30;;;;;;5029147;28;20143;-61
2024/01/31 12:26:00;;;;;;;6.70;3.40;;;18.40;40.30;;;;;;5026136;28;20053;-62
2024/01/31 12:28:30;;;;;;;20.13;3.45;;;18.40;40.30;;;;;;5020422;28;20049;-62
2024/01/31 12:30:59;;;;;;;58.20;15.30;;;18.40;40.40;;;;;;5034315;28;20288;-62
2024/01/31 12:33:28;;;;;;;36.25;11.13;;;18.50;40.50;;;;;;5027654;28;20057;-63
2024/01/31 12:35:57;;;;;;;18.35;5.45;;;18.70;40.50;;;;;;5028189;28;20115;-65
2024/01/31 12:38:26;;;;;;;23.05;5.80;;;18.90;40.50;;;;;;5029187;28;20049;-62
2024/01/31 12:40:54;;;;;;;31.75;6.22;;;19.00;40.30;;;;;;5027416;28;20079;-62
2024/01/31 12:43:24;;;;;;;23.50;5.78;;;19.20;40.20;;;;;;5032595;28;20061;-61
2024/01/31 12:45:55;;;;;;;54.17;9.07;;;19.40;40.10;;;;;;5019373;28;20590;-61
2024/01/31 12:48:25;;;;;;;23.73;8.43;;;19.50;40.00;;;;;;5030334;28;20072;-60
2024/01/31 12:50:55;;;;;;;37.38;6.60;;;19.70;40.00;;;;;;5031572;28;20057;-63
2024/01/31 12:53:25;;;;;;;24.83;6.05;;;19.70;39.80;;;;;;5028475;28;20521;-61
2024/01/31 12:55:53;;;;;;;14.50;4.78;;;19.70;39.70;;;;;;5025172;28;20410;-61